Latest Weather Observations for Toolara

IDQ60801

Issued at 4:05 am EST Sunday 31 August 2014 (issued every 30 minutes, with the page automatically refreshed every 10 minutes)

About weather observations | Map of weather stations | Latest weather observations for QLD | Other Formats
Station Details ID: 040555 Name: TOOLARA (KELLY) Lat: -25.97 Lon: 152.86 Height: 143.0 m
Data from the previous 72 hours. | See also: Recent months at Toolara
Date/Time
EST
Temp
°C
App
Temp
°C
Dew
Point
Rel
Hum
%
Delta-T
°C
Wind Press
QNH
hPa
Press
MSL
hPa
Rain
since 9 am
mm
Dir
 
Spd
km/h
Gust
km/h
Spd
kts
Gust
kts
31/04:00am 14.0 11.5 9.6 75 2.3 - 13 13 7 7 - - -
31/03:30am 14.1 12.0 9.7 75 2.3 - 11 13 6 7 - - -
31/03:00am 14.1 - 9.7 75 2.3 - - - - - - - 0.0
31/02:30am 14.4 - 9.6 73 2.5 - - - - - - - -
31/02:00am 14.6 - 9.6 72 2.6 - - - - - - - -
31/01:30am 14.7 - 9.5 71 2.7 - - - - - - - -
31/01:00am 14.8 - 9.4 70 2.8 - - - - - - - -
31/12:30am 14.7 - 9.3 70 2.8 - - - - - - - -
31/12:00am 14.7 - 9.5 71 2.7 - - - - - - - -
 
Date/Time
EST
Temp
°C
App
Temp
°C
Dew
Point
Rel
Hum
%
Delta-T
°C
Wind Press
QNH
hPa
Press
MSL
hPa
Rain
since 9 am
mm
Dir
 
Spd
km/h
Gust
km/h
Spd
kts
Gust
kts
30/11:30pm 14.4 - 9.4 72 2.6 - - - - - - - -
30/11:00pm 14.5 - 9.3 71 2.7 - - - - - - - -
30/10:30pm 14.3 - 9.3 72 2.6 - - - - - - - -
30/10:00pm 14.0 - 9.0 72 2.6 - - - - - - - -
30/09:30pm 14.1 - 9.3 73 2.5 - - - - - - - -
30/09:00pm 14.2 - 8.8 70 2.8 - - - - - - - 0.0
30/08:30pm 15.5 - 9.8 69 3.0 - - - - - - - -
30/08:00pm 15.3 - 9.4 68 3.1 - - - - - - - -
30/07:30pm 14.9 - 8.8 67 3.1 - - - - - - - -
30/07:00pm 15.0 - 8.7 66 3.2 - - - - - - - -
30/06:30pm 15.6 - 8.6 63 3.6 - - - - - - - -
30/06:00pm 16.0 - 8.2 60 4.0 - - - - - - - -
30/05:30pm 17.0 - 7.9 55 4.6 - - - - - - - -
30/05:00pm 18.2 - 7.0 48 5.7 - - - - - - - -
30/04:30pm 19.7 - 6.1 41 6.8 - - - - - - - -
30/04:00pm 21.4 - 5.7 36 7.9 - - - - - - - -
30/03:30pm 22.2 - 6.0 35 8.2 - - - - - - - -
30/03:00pm 23.2 - 6.9 35 8.5 - - - - - - - 0.0
30/02:30pm 23.3 - 6.6 34 8.6 - - - - - - - -
30/02:00pm 23.2 - 6.5 34 8.6 - - - - - - - -
30/01:30pm 22.2 - 5.2 33 8.5 - - - - - - - -
30/01:00pm 22.6 18.6 5.1 32 8.8 - 15 17 8 9 - - -
30/12:30pm 21.5 - 5.4 35 8.1 - - - - - - - -
30/12:00pm 20.6 - 5.0 36 7.7 - - - - - - - -
30/11:30am 20.3 - 7.0 42 6.8 - - - - - - - -
30/11:00am 20.1 - 7.8 45 6.4 - - - - - - - -
30/10:30am 19.2 - 9.4 53 5.2 - - - - - - - -
30/10:00am 17.8 - 8.9 56 4.6 - - - - - - - -
30/09:30am 16.9 - 9.3 61 4.0 - - - - - - - -
30/09:00am 15.9 - 10.9 72 2.7 - - - - - - - 0.0
30/08:30am 14.4 - 11.0 80 1.8 - - - - - - - -
30/08:00am 13.2 - 10.6 84 1.4 - - - - - - - -
30/07:30am 12.1 - 10.3 89 0.9 - - - - - - - -
30/07:00am 11.9 - 10.1 89 0.9 - - - - - - - -
30/06:30am 11.9 - 10.5 91 0.7 - - - - - - - -
30/06:00am 11.9 9.9 10.1 89 0.9 - 11 13 6 7 - - -
30/05:30am 12.4 - 10.5 88 1.0 - - - - - - - -
30/05:00am 12.4 - 10.5 88 1.0 - - - - - - - -
30/04:30am 12.7 - 10.6 87 1.1 - - - - - - - -
30/04:00am 12.4 - 10.5 88 1.0 - - - - - - - -
30/03:30am 12.4 - 10.3 87 1.1 - - - - - - - -
30/03:00am 12.5 - 10.2 86 1.2 - - - - - - - 0.0
30/02:30am 12.5 - 10.4 87 1.1 - - - - - - - -
30/02:00am 12.4 - 10.1 86 1.2 - - - - - - - -
30/01:30am 12.9 - 10.6 86 1.2 - - - - - - - -
30/01:00am 12.4 - 10.3 87 1.1 - - - - - - - -
30/12:30am 12.8 - 10.3 85 1.3 - - - - - - - -
30/12:00am 12.9 - 10.4 85 1.3 - - - - - - - -
 
Date/Time
EST
Temp
°C
App
Temp
°C
Dew
Point
Rel
Hum
%
Delta-T
°C
Wind Press
QNH
hPa
Press
MSL
hPa
Rain
since 9 am
mm
Dir
 
Spd
km/h
Gust
km/h
Spd
kts
Gust
kts
29/11:30pm 13.1 - 10.3 83 1.5 - - - - - - - -
29/11:00pm 13.8 - 10.8 82 1.6 - - - - - - - -
29/10:30pm 13.9 - 10.9 82 1.6 - - - - - - - -
29/10:00pm 13.9 - 10.9 82 1.6 - - - - - - - -
29/09:30pm 13.8 - 11.0 83 1.5 - - - - - - - -
29/09:00pm 14.0 - 11.0 82 1.6 - - - - - - - 0.0
29/08:30pm 14.5 - 10.9 79 1.9 - - - - - - - -
29/08:00pm 14.5 - 10.7 78 2.0 - - - - - - - -
29/07:30pm 14.6 - 10.8 78 2.0 - - - - - - - -
29/07:00pm 14.7 - 10.9 78 2.0 - - - - - - - -
29/06:30pm 14.7 - 10.9 78 2.0 - - - - - - - -
29/06:00pm 14.9 - 10.5 75 2.3 - - - - - - - -
29/05:30pm 15.5 - 10.3 71 2.8 - - - - - - - -
29/05:00pm 16.5 - 10.4 67 3.3 - - - - - - - -
29/04:30pm 17.4 - 10.3 63 3.8 - - - - - - - -
29/04:00pm 18.4 - 10.3 59 4.4 - - - - - - - -
29/03:30pm 19.2 - 10.2 56 4.9 - - - - - - - -
29/03:00pm 19.9 - 10.0 53 5.3 - - - - - - - 0.0
29/02:30pm 21.4 - 10.6 50 5.9 - - - - - - - -
29/02:00pm 21.5 - 10.9 51 5.9 - - - - - - - -
29/01:30pm 20.6 - 9.5 49 6.0 - - - - - - - -
29/01:00pm 22.0 - 11.1 50 6.1 - - - - - - - -
29/12:30pm 21.4 - 10.6 50 5.9 - - - - - - - -
29/12:00pm 21.0 - 10.8 52 5.6 - - - - - - - -
29/11:30am 20.6 - 10.4 52 5.6 - - - - - - - -
29/11:00am 20.8 - 10.9 53 5.5 - - - - - - - -
29/10:30am 19.8 - 10.2 54 5.2 - - - - - - - -
29/10:00am 19.8 - 11.6 59 4.6 - - - - - - - -
29/09:30am 18.4 - 10.7 61 4.2 - - - - - - - -
29/09:00am 17.2 - 10.6 65 3.5 - - - - - - - 0.0
29/08:30am 15.7 - 10.0 69 3.0 - - - - - - - -
29/08:00am 13.7 - 9.2 74 2.3 - - - - - - - -
29/07:30am 12.5 - 8.4 76 2.0 - - - - - - - -
29/07:00am 11.8 - 8.1 78 1.8 - - - - - - - -
29/06:30am 11.5 - 8.0 79 1.7 - - - - - - - -
29/06:00am 11.6 - 7.9 78 1.8 - - - - - - - -
29/05:30am 11.8 - 7.9 77 1.9 - - - - - - - -
29/05:00am 12.2 - 7.9 75 2.1 - - - - - - - -
29/04:30am 12.6 - 8.1 74 2.2 - - - - - - - -
29/04:00am 12.7 - 8.2 74 2.2 - - - - - - - -
29/03:30am 12.9 - 8.4 74 2.3 - - - - - - - -
29/03:00am 12.6 - 8.5 76 2.1 - - - - - - - 0.0
29/02:30am 12.7 - 8.6 76 2.1 - - - - - - - -
29/02:00am 13.0 - 8.9 76 2.1 - - - - - - - -
29/01:30am 13.1 - 9.0 76 2.1 - - - - - - - -
29/01:00am 13.1 - 9.0 76 2.1 - - - - - - - -
29/12:30am 13.0 - 9.1 77 2.0 - - - - - - - -
29/12:00am 13.5 - 9.4 76 2.1 - - - - - - - -
 
Date/Time
EST
Temp
°C
App
Temp
°C
Dew
Point
Rel
Hum
%
Delta-T
°C
Wind Press
QNH
hPa
Press
MSL
hPa
Rain
since 9 am
mm
Dir
 
Spd
km/h
Gust
km/h
Spd
kts
Gust
kts
28/11:30pm 13.5 - 9.4 76 2.1 - - - - - - - -
28/11:00pm 13.8 - 9.5 75 2.2 - - - - - - - -
28/10:30pm 14.1 - 9.7 75 2.3 - - - - - - - -
28/10:00pm 14.6 - 10.2 75 2.3 - - - - - - - -
28/09:30pm 14.9 - 10.9 77 2.1 - - - - - - - -
28/09:00pm 14.8 - 10.8 77 2.1 - - - - - - - 0.0
28/08:30pm 15.2 - 10.6 74 2.4 - - - - - - - -
28/08:00pm 15.6 - 10.4 71 2.8 - - - - - - - -
28/07:30pm 15.9 - 10.2 69 3.0 - - - - - - - -
28/07:00pm 16.4 - 10.0 66 3.4 - - - - - - - -
28/06:30pm 16.1 - 10.0 67 3.2 - - - - - - - -
28/06:00pm 16.7 - 10.3 66 3.4 - - - - - - - -
28/05:30pm 17.2 - 10.6 65 3.5 - - - - - - - -
28/05:00pm 17.8 - 11.1 65 3.6 - - - - - - - -
28/04:30pm 19.1 - 11.9 63 4.0 - - - - - - - -
28/04:00pm 19.3 - 11.3 60 4.4 - - - - - - - -
28/03:30pm 20.0 - 11.2 57 4.9 - - - - - - - -
28/03:00pm 20.0 - 11.0 56 5.0 - - - - - - - 0.0
28/02:30pm 21.8 - 12.4 55 5.4 - - - - - - - -
28/02:00pm 20.8 - 12.0 57 5.0 - - - - - - - -
28/01:30pm 21.7 - 12.8 57 5.1 - - - - - - - -
28/01:00pm 21.3 - 12.7 58 4.9 - - - - - - - -
28/12:30pm 21.4 - 13.3 60 4.7 - - - - - - - -
28/12:00pm 20.2 - 12.9 63 4.2 - - - - - - - -
28/11:30am 19.8 - 13.3 66 3.7 - - - - - - - -
28/11:00am 18.8 - 12.8 68 3.4 - - - - - - - -
28/10:30am 18.9 - 13.5 71 3.1 - - - - - - - -
28/10:00am 17.9 - 13.4 75 2.6 - - - - - - - -
28/09:30am 16.8 - 12.9 78 2.2 - - - - - - - -
28/09:00am 15.4 - 13.1 86 1.3 - - - - - - - 10.0
28/08:30am 13.1 - 11.7 91 0.8 - - - - - - - -
28/08:00am 11.8 - 10.7 93 0.6 - - - - - - - -
28/07:30am 10.4 - 9.6 95 0.4 - - - - - - - -
28/07:00am 9.8 - 8.9 94 0.4 - - - - - - - -
28/06:30am 9.6 - 8.5 93 0.5 - - - - - - - -
28/06:00am 9.5 - 8.3 92 0.6 - - - - - - - -
28/05:30am 9.7 - 8.1 90 0.8 - - - - - - - -
28/05:00am 9.5 - 7.9 90 0.8 - - - - - - - -
28/04:30am 9.7 - 8.0 89 0.8 - - - - - - - -

Other Formats:

Comma delimited format used in spreadsheet applications
http://www.bom.gov.au/fwo/IDQ60801/IDQ60801.94558.axf

JavaScript Object Notation format (JSON) in row-major order
http://www.bom.gov.au/fwo/IDQ60801/IDQ60801.94558.json